Time;durP1;ratioP1;P1;durP2;ratioP2;P2;SDS_P1;SDS_P2;PMS_P1;PMS_P2;Temp;Humidity;BMP_temperature;BMP_pressure;BME280_temperature;BME280_humidity;BME280_pressure;Samples;Min_cycle;Max_cycle;Signal;HPM_P1;HPM_P2
2021/10/01 00:00:42;;;;;;;;;;;;;;;20.11;54.16;101813.78;4973383;28;1149;-61
2021/10/01 00:03:11;;;;;;;;;;;;;;;20.35;53.45;101810.50;4978455;28;1188;-62
2021/10/01 00:05:36;;;;;;;;;;;;;;;20.34;53.55;101811.59;4965430;28;1156;-62
2021/10/01 00:08:01;;;;;;;;;;;;;;;20.28;53.57;101812.72;4964853;28;1232;-61
2021/10/01 00:10:27;;;;;;;;;;;;;;;20.47;52.94;101811.06;4969484;28;1906;-61
2021/10/01 00:12:52;;;;;;;;;;;;;;;20.14;53.89;101802.19;4974973;28;1152;-62
2021/10/01 00:15:17;;;;;;;;;;;;;;;20.40;53.15;101807.75;4974811;28;836;-61
2021/10/01 00:17:43;;;;;;;;;;;;;;;20.42;53.29;101811.06;4978007;28;1132;-62
2021/10/01 00:20:09;;;;;;;;;;;;;;;20.44;52.93;101808.88;4978119;28;1176;-61
2021/10/01 00:22:34;;;;;;;;;;;;;;;20.20;53.78;101816.81;4970660;28;1204;-61
2021/10/01 00:24:59;;;;;;;;;;;;;;;20.06;54.27;101816.50;4968477;28;1129;-61
2021/10/01 00:27:25;;;;;;;;;;;;;;;20.05;54.15;101814.88;4977533;28;1200;-61
2021/10/01 00:29:50;;;;;;;;;;;;;;;20.20;53.88;101810.47;4965183;28;1175;-62
2021/10/01 00:32:16;;;;;;;;;;;;;;;20.27;53.41;101822.09;4971001;28;2000;-61
2021/10/01 00:34:41;;;;;;;;;;;;;;;20.25;53.63;101821.53;4976766;28;1215;-61
2021/10/01 00:37:07;;;;;;;;;;;;;;;20.36;53.33;101820.47;4961547;28;1184;-61
2021/10/01 00:39:32;;;;;;;;;;;;;;;20.15;53.88;101823.16;4974429;28;1145;-61
2021/10/01 00:42:00;;;;;;;;;;;;;;;20.14;53.72;101827.03;4966622;28;1375;-60
2021/10/01 00:44:25;;;;;;;;;;;;;;;20.40;53.12;101831.78;4971018;28;1179;-62
2021/10/01 00:46:50;;;;;;;;;;;;;;;20.35;53.19;101827.06;4970918;28;1053;-62
2021/10/01 00:49:16;;;;;;;;;;;;;;;20.40;53.12;101831.78;4976316;28;1244;-61
2021/10/01 00:51:42;;;;;;;;;;;;;;;20.37;53.20;101838.69;4969209;28;1915;-61
2021/10/01 00:54:08;;;;;;;;;;;;;;;20.25;53.55;101835.34;4976306;28;1552;-61
2021/10/01 00:56:34;;;;;;;;;;;;;;;20.21;53.50;101828.72;4977790;28;1188;-61
2021/10/01 00:58:59;;;;;;;;;;;;;;;20.48;53.05;101829.31;4959853;28;1338;-61
2021/10/01 01:01:24;;;;;;;;;;;;;;;20.30;53.19;101833.44;4977617;28;1152;-61
2021/10/01 01:03:51;;;;;;;;;;;;;;;20.33;52.97;101834.81;4976137;28;1228;-60
2021/10/01 01:06:16;;;;;;;;;;;;;;;20.39;52.86;101819.91;4960724;28;1180;-62
2021/10/01 01:08:53;;;;;;;;;;;;;;;20.29;53.45;101817.13;4968766;28;980;-61
2021/10/01 01:11:37;;;;;;;;;;;;;;;20.32;53.17;101822.09;4959981;28;1974;-61
2021/10/01 01:14:05;;;;;;;;;;;;;;;20.37;53.00;101822.13;4977326;28;1208;-61
2021/10/01 01:16:31;;;;;;;;;;;;;;;20.40;53.06;101829.00;4959927;28;1163;-62
2021/10/01 01:18:57;;;;;;;;;;;;;;;20.21;53.46;101828.72;4975517;28;1344;-61
2021/10/01 01:21:41;;;;;;;;;;;;;;;20.28;53.24;101834.81;4958120;28;1296;-61
2021/10/01 01:24:15;;;;;;;;;;;;;;;20.31;53.15;101820.44;4975943;28;1273;-61
2021/10/01 01:27:36;;;;;;;;;;;;;;;20.22;53.49;101817.41;4975830;28;1105;-61
2021/10/01 01:30:07;;;;;;;;;;;;;;;20.28;53.18;101823.75;4934820;29;1524;-61
2021/10/01 01:32:38;;;;;;;;;;;;;;;20.51;52.79;101826.00;4962824;28;1910;-61
2021/10/01 01:35:11;;;;;;;;;;;;;;;20.28;53.25;101824.56;4959184;28;1238;-61
2021/10/01 01:37:40;;;;;;;;;;;;;;;20.37;52.88;101815.75;4959457;28;1109;-62
2021/10/01 01:40:06;;;;;;;;;;;;;;;20.15;53.62;101819.59;4975440;28;1210;-62
2021/10/01 01:42:31;;;;;;;;;;;;;;;20.36;53.01;101820.47;4974905;28;1191;-60
2021/10/01 01:44:57;;;;;;;;;;;;;;;20.39;52.94;101825.44;4948311;29;1307;-62
2021/10/01 01:47:23;;;;;;;;;;;;;;;20.63;52.16;101819.38;4973812;28;1149;-61
2021/10/01 01:49:48;;;;;;;;;;;;;;;20.41;52.85;101812.19;4963489;28;1260;-63
2021/10/01 01:52:14;;;;;;;;;;;;;;;20.25;53.33;101803.03;4954499;28;1967;-61
2021/10/01 01:54:39;;;;;;;;;;;;;;;20.27;53.25;101817.41;4979421;28;1188;-60
2021/10/01 01:57:05;;;;;;;;;;;;;;;20.33;53.16;101815.50;4966251;28;1122;-60
2021/10/01 01:59:31;;;;;;;;;;;;;;;20.46;52.68;101820.47;4962581;28;1299;-60
2021/10/01 02:01:57;;;;;;;;;;;;;;;20.47;52.52;101821.31;4968253;28;1247;-60
2021/10/01 02:04:23;;;;;;;;;;;;;;;20.54;52.30;101826.53;4977018;28;1256;-61
2021/10/01 02:06:50;;;;;;;;;;;;;;;20.35;53.02;101824.31;4963240;28;1237;-60
2021/10/01 02:09:15;;;;;;;;;;;;;;;20.39;52.87;101830.94;4980486;28;1184;-60
2021/10/01 02:11:41;;;;;;;;;;;;;;;20.33;52.93;101829.31;4980572;28;1914;-61
2021/10/01 02:14:08;;;;;;;;;;;;;;;20.46;52.46;101831.50;4979234;28;1406;-61
2021/10/01 02:16:34;;;;;;;;;;;;;;;20.41;52.63;101828.75;4949521;28;1322;-61
2021/10/01 02:18:59;;;;;;;;;;;;;;;20.28;53.28;101837.56;4979242;28;1231;-61
2021/10/01 02:21:26;;;;;;;;;;;;;;;20.37;52.72;101829.56;4978281;28;1654;-61
2021/10/01 02:23:51;;;;;;;;;;;;;;;20.54;52.39;101834.84;4979139;28;1234;-61
2021/10/01 02:26:37;;;;;;;;;;;;;;;20.35;52.73;101836.19;4978708;28;1279;-61
2021/10/01 02:29:21;;;;;;;;;;;;;;;20.21;53.30;101834.25;4979053;28;1132;-61
2021/10/01 02:31:50;;;;;;;;;;;;;;;20.33;53.07;101826.53;4978574;28;1914;-61
2021/10/01 02:34:19;;;;;;;;;;;;;;;20.29;53.02;101836.47;4974865;28;1356;-62
2021/10/01 02:36:44;;;;;;;;;;;;;;;20.47;52.56;101830.41;4978223;28;1315;-61
2021/10/01 02:39:10;;;;;;;;;;;;;;;20.29;52.82;101836.47;4978795;28;1158;-61
2021/10/01 02:41:35;;;;;;;;;;;;;;;20.24;53.23;101831.75;4978706;28;1152;-61
2021/10/01 02:44:01;;;;;;;;;;;;;;;20.33;53.01;101840.34;4978402;28;1581;-61
2021/10/01 02:46:26;;;;;;;;;;;;;;;20.36;52.80;101837.03;4978317;28;1255;-62
2021/10/01 02:48:53;;;;;;;;;;;;;;;20.12;53.57;101842.22;4978561;28;1219;-61
2021/10/01 02:51:19;;;;;;;;;;;;;;;20.26;52.89;101848.88;4976702;28;1977;-61
2021/10/01 02:53:49;;;;;;;;;;;;;;;20.31;53.02;101848.06;4957288;28;1315;-61
2021/10/01 02:56:15;;;;;;;;;;;;;;;20.38;52.78;101851.38;4979799;28;1180;-61
2021/10/01 02:58:59;;;;;;;;;;;;;;;20.23;53.21;101854.13;4977425;28;1314;-62
2021/10/01 03:01:26;;;;;;;;;;;;;;;20.19;53.30;101859.38;4967118;28;1066;-62
2021/10/01 03:03:53;;;;;;;;;;;;;;;20.14;53.48;101856.59;4978427;28;1140;-62
2021/10/01 03:06:18;;;;;;;;;;;;;;;20.24;53.16;101855.78;4962161;28;1157;-63
2021/10/01 03:08:44;;;;;;;;;;;;;;;20.28;52.92;101857.72;4978019;28;982;-62
2021/10/01 03:11:13;;;;;;;;;;;;;;;20.19;53.18;101862.13;4978018;28;1910;-62
2021/10/01 03:13:39;;;;;;;;;;;;;;;20.31;52.91;101865.47;4977611;28;1400;-62
2021/10/01 03:16:04;;;;;;;;;;;;;;;20.17;53.11;101861.56;4977735;28;1203;-62
2021/10/01 03:18:30;;;;;;;;;;;;;;;20.21;52.96;101864.63;4978154;28;1227;-62
2021/10/01 03:20:56;;;;;;;;;;;;;;;20.21;53.03;101867.38;4978152;28;1129;-62
2021/10/01 03:23:21;;;;;;;;;;;;;;;20.29;52.93;101864.09;4974529;28;1224;-63
2021/10/01 03:25:47;;;;;;;;;;;;;;;20.42;52.56;101863.56;4958140;28;1144;-63
2021/10/01 03:28:13;;;;;;;;;;;;;;;20.28;52.59;101867.94;4959429;28;1913;-62
2021/10/01 03:30:41;;;;;;;;;;;;;;;20.29;52.86;101866.84;4978002;28;1989;-62
2021/10/01 03:33:07;;;;;;;;;;;;;;;20.06;53.14;101868.97;4977913;28;1592;-62
2021/10/01 03:35:32;;;;;;;;;;;;;;;20.08;53.34;101864.03;4977596;28;1322;-61
2021/10/01 03:37:59;;;;;;;;;;;;;;;19.98;53.62;101858.47;4971286;28;991;-63
2021/10/01 03:40:30;;;;;;;;;;;;;;;20.05;53.33;101861.81;4977688;28;1208;-65
2021/10/01 03:42:56;;;;;;;;;;;;;;;20.02;53.31;101870.63;4977602;28;1334;-62
2021/10/01 03:45:23;;;;;;;;;;;;;;;20.33;52.42;101876.25;4976715;28;1343;-62
2021/10/01 03:47:48;;;;;;;;;;;;;;;20.38;52.59;101867.97;4977283;28;1175;-62
2021/10/01 03:50:14;;;;;;;;;;;;;;;20.30;52.65;101865.72;4968387;28;1176;-62
2021/10/01 03:52:39;;;;;;;;;;;;;;;20.52;52.03;101866.34;4969418;28;1981;-61
2021/10/01 03:55:06;;;;;;;;;;;;;;;20.22;52.73;101871.81;4977139;28;1303;-61
2021/10/01 03:57:32;;;;;;;;;;;;;;;20.40;51.82;101876.81;4965812;28;1141;-62
2021/10/01 03:59:57;;;;;;;;;;;;;;;20.46;51.44;101874.91;4961812;28;1207;-61
2021/10/01 04:02:22;;;;;;;;;;;;;;;20.39;51.70;101874.34;4966427;28;1126;-68
2021/10/01 04:04:48;;;;;;;;;;;;;;;20.45;51.66;101878.75;4971490;28;887;-65
2021/10/01 04:07:14;;;;;;;;;;;;;;;20.43;51.58;101880.97;4974163;28;1181;-65
2021/10/01 04:09:42;;;;;;;;;;;;;;;20.45;51.55;101876.81;4967344;28;1180;-65
2021/10/01 04:12:09;;;;;;;;;;;;;;;20.55;51.32;101883.47;4965509;28;1978;-64
2021/10/01 04:14:35;;;;;;;;;;;;;;;20.48;51.45;101884.56;4967037;28;1268;-64
2021/10/01 04:17:02;;;;;;;;;;;;;;;20.64;51.12;101881.84;4976670;28;1198;-63
2021/10/01 04:19:28;;;;;;;;;;;;;;;20.51;51.19;101889.56;4965194;28;1132;-64
2021/10/01 04:21:54;;;;;;;;;;;;;;;20.56;51.42;101885.97;4962548;28;1172;-64
2021/10/01 04:24:19;;;;;;;;;;;;;;;20.62;51.12;101889.56;4974316;28;1335;-63
2021/10/01 04:26:51;;;;;;;;;;;;;;;20.79;50.78;101887.41;4962916;28;1011;-63
2021/10/01 04:29:17;;;;;;;;;;;;;;;20.55;51.08;101894.53;4971188;28;1124;-64
2021/10/01 04:31:42;;;;;;;;;;;;;;;20.59;51.35;101901.16;4962197;28;1979;-62
2021/10/01 04:34:09;;;;;;;;;;;;;;;20.22;51.93;101891.13;4961077;28;1216;-60
2021/10/01 04:36:35;;;;;;;;;;;;;;;20.60;50.92;101905.59;4965901;28;1363;-61
2021/10/01 04:39:00;;;;;;;;;;;;;;;20.48;51.30;101900.31;4967913;28;1164;-61
2021/10/01 04:41:28;;;;;;;;;;;;;;;20.40;51.49;101904.44;4966335;28;1258;-60
2021/10/01 04:43:54;;;;;;;;;;;;;;;20.28;52.03;101903.84;4976364;28;1144;-60
2021/10/01 04:46:40;;;;;;;;;;;;;;;20.34;51.80;101900.00;4976146;28;1526;-60
2021/10/01 04:49:05;;;;;;;;;;;;;;;20.20;51.96;101905.19;4976393;28;1247;-61
2021/10/01 04:51:31;;;;;;;;;;;;;;;20.42;51.46;101906.94;4969894;28;1981;-60
2021/10/01 04:53:56;;;;;;;;;;;;;;;20.43;51.40;101911.38;4976207;28;1253;-61
2021/10/01 04:56:22;;;;;;;;;;;;;;;20.12;52.42;101917.59;4976170;28;1140;-59
2021/10/01 04:58:48;;;;;;;;;;;;;;;20.35;51.75;101918.22;4976328;28;1335;-60
2021/10/01 05:01:32;;;;;;;;;;;;;;;20.47;51.57;101913.31;4965864;28;920;-60
2021/10/01 05:04:21;;;;;;;;;;;;;;;20.40;51.75;101915.50;4962733;28;1354;-61
2021/10/01 05:07:13;;;;;;;;;;;;;;;20.44;51.69;101911.09;4974927;28;1168;-60
2021/10/01 05:09:57;;;;;;;;;;;;;;;20.64;51.06;101913.06;4965031;28;951;-61
2021/10/01 05:12:52;;;;;;;;;;;;;;;20.43;51.62;101917.72;4941325;28;1965;-50
2021/10/01 05:15:38;;;;;;;;;;;;;;;20.38;51.56;101923.22;4977189;28;1144;-51
2021/10/01 05:18:23;;;;;;;;;;;;;;;20.36;51.90;101922.66;4964127;28;948;-52
2021/10/01 05:21:07;;;;;;;;;;;;;;;20.48;51.32;101926.03;4976491;28;893;-53
2021/10/01 05:23:46;;;;;;;;;;;;;;;20.42;51.69;101913.28;4966888;28;1399;-51
2021/10/01 05:26:11;;;;;;;;;;;;;;;20.29;51.89;101922.91;4972486;28;1070;-48
2021/10/01 05:28:37;;;;;;;;;;;;;;;20.39;51.75;101929.59;4975828;28;1350;-48
2021/10/01 05:31:02;;;;;;;;;;;;;;;20.52;51.34;101918.84;4975814;28;1968;-50
2021/10/01 05:33:29;;;;;;;;;;;;;;;20.38;51.67;101925.97;4976914;28;1276;-49
2021/10/01 05:35:54;;;;;;;;;;;;;;;20.29;52.04;101916.56;4977060;28;1105;-49
2021/10/01 05:38:20;;;;;;;;;;;;;;;20.36;52.00;101925.44;4963615;28;964;-49
2021/10/01 05:40:45;;;;;;;;;;;;;;;20.38;52.00;101922.38;4975983;28;1274;-51
2021/10/01 05:43:11;;;;;;;;;;;;;;;20.49;51.81;101919.38;4975260;28;1466;-49
2021/10/01 05:45:40;;;;;;;;;;;;;;;20.04;52.72;101923.66;4975424;28;1205;-47
2021/10/01 05:48:49;;;;;;;;;;;;;;;19.73;53.46;101920.69;4941138;29;1276;-47
2021/10/01 05:51:33;;;;;;;;;;;;;;;19.30;54.04;101917.09;4935649;29;1907;-47
2021/10/01 05:54:24;;;;;;;;;;;;;;;19.07;53.95;101921.88;4956110;28;1102;-50
2021/10/01 05:57:08;;;;;;;;;;;;;;;19.06;53.34;101914.72;4976840;28;1097;-48
2021/10/01 05:59:57;;;;;;;;;;;;;;;19.00;53.07;101921.28;4954116;28;1002;-47
2021/10/01 06:02:22;;;;;;;;;;;;;;;18.99;53.35;101925.13;4971966;28;1133;-49
2021/10/01 06:04:51;;;;;;;;;;;;;;;19.34;54.41;101926.50;4976664;28;1180;-47
2021/10/01 06:07:16;;;;;;;;;;;;;;;19.80;54.88;101923.25;4976551;28;1131;-48
2021/10/01 06:09:42;;;;;;;;;;;;;;;20.19;53.95;101931.16;4976764;28;1156;-50
2021/10/01 06:12:10;;;;;;;;;;;;;;;20.46;52.96;101928.22;4965789;28;1983;-48
2021/10/01 06:14:36;;;;;;;;;;;;;;;20.72;52.18;101927.47;4973640;28;1129;-49
2021/10/01 06:17:02;;;;;;;;;;;;;;;20.84;51.78;101928.03;4976406;28;1152;-47
2021/10/01 06:19:27;;;;;;;;;;;;;;;21.16;50.61;101921.44;4975573;28;1053;-47
2021/10/01 06:21:54;;;;;;;;;;;;;;;20.95;51.33;101926.94;4971493;28;1192;-47
2021/10/01 06:24:20;;;;;;;;;;;;;;;20.42;51.95;101929.03;4970996;28;917;-51
2021/10/01 06:26:47;;;;;;;;;;;;;;;19.59;52.56;101933.31;4976091;28;1224;-48
2021/10/01 06:29:14;;;;;;;;;;;;;;;19.33;51.37;101922.09;4976020;28;1148;-50
2021/10/01 06:31:39;;;;;;;;;;;;;;;18.85;50.00;101923.88;4975744;28;1923;-49
2021/10/01 06:34:05;;;;;;;;;;;;;;;18.57;48.88;101931.31;4976104;28;1149;-47
2021/10/01 06:36:30;;;;;;;;;;;;;;;18.49;52.13;101932.56;4978331;28;1108;-46
2021/10/01 06:38:55;;;;;;;;;;;;;;;18.83;54.65;101931.53;4979879;28;1207;-47
2021/10/01 06:41:21;;;;;;;;;;;;;;;19.32;55.00;101936.97;4980132;28;1116;-47
2021/10/01 06:43:46;;;;;;;;;;;;;;;19.63;55.22;101931.69;4979810;28;1112;-47
2021/10/01 06:46:26;;;;;;;;;;;;;;;20.00;55.00;101930.81;4979989;28;1077;-46
2021/10/01 06:51:30;;;;;;;;;;;;;;;20.38;53.64;101938.97;4979366;28;1910;-46
2021/10/01 07:21:39;;;;;;;;;;;;;;;18.77;53.77;101933.41;4972180;28;1116;-47
2021/10/01 08:18:26;;;;;;;;;;;;;;;20.76;52.11;101923.91;4976243;28;1121;-45
2021/10/01 08:20:52;;;;;;;;;;;;;;;20.72;52.06;101925.56;4977241;28;1069;-46
2021/10/01 08:23:17;;;;;;;;;;;;;;;20.73;51.70;101916.13;4966918;28;1240;-46
2021/10/01 08:25:43;;;;;;;;;;;;;;;20.92;51.24;101921.16;4977310;28;1907;-46
2021/10/01 08:28:08;;;;;;;;;;;;;;;20.98;51.20;101914.50;4978036;28;1096;-47
2021/10/01 08:30:54;;;;;;;;;;;;;;;21.03;51.06;101920.03;4977574;28;1981;-46
2021/10/01 08:33:19;;;;;;;;;;;;;;;20.79;51.58;101926.13;4978010;28;1113;-46
2021/10/01 08:35:45;;;;;;;;;;;;;;;21.03;51.07;101922.81;4977089;28;1380;-46
2021/10/01 08:38:10;;;;;;;;;;;;;;;20.97;51.33;101921.97;4977658;28;1027;-46
2021/10/01 08:40:36;;;;;;;;;;;;;;;21.12;50.74;101921.13;4977860;28;1199;-46
2021/10/01 08:43:01;;;;;;;;;;;;;;;21.22;50.56;101923.06;4977002;28;1149;-47
2021/10/01 08:45:27;;;;;;;;;;;;;;;21.02;51.04;101912.84;4977692;28;1113;-48
2021/10/01 08:47:52;;;;;;;;;;;;;;;21.04;50.83;101913.38;4976587;28;1144;-47
2021/10/01 08:50:19;;;;;;;;;;;;;;;20.87;51.63;101919.19;4977427;28;1208;-46
2021/10/01 08:52:44;;;;;;;;;;;;;;;20.96;51.44;101909.25;4977266;28;1965;-46
2021/10/01 08:55:10;;;;;;;;;;;;;;;21.09;50.86;101915.34;4977419;28;1196;-46
2021/10/01 08:57:35;;;;;;;;;;;;;;;20.83;51.60;101910.63;4976453;28;926;-46
2021/10/01 09:00:01;;;;;;;;;;;;;;;20.80;51.58;101918.63;4976717;28;1140;-46
2021/10/01 09:02:26;;;;;;;;;;;;;;;20.81;51.56;101910.06;4976650;28;1121;-46
2021/10/01 09:04:55;;;;;;;;;;;;;;;20.67;51.85;101914.44;4977312;28;1160;-46
2021/10/01 09:07:23;;;;;;;;;;;;;;;20.29;52.65;101916.56;4977090;28;1211;-46
2021/10/01 09:09:48;;;;;;;;;;;;;;;20.09;52.82;101912.63;4970547;28;934;-45
2021/10/01 09:12:14;;;;;;;;;;;;;;;19.84;53.45;101902.31;4959642;28;1968;-45
2021/10/01 09:14:42;;;;;;;;;;;;;;;19.77;53.25;101907.22;4977593;28;1113;-45
2021/10/01 09:17:12;;;;;;;;;;;;;;;19.69;53.37;101914.06;4976014;28;1215;-45
2021/10/01 09:19:38;;;;;;;;;;;;;;;19.81;52.56;101914.72;4975875;28;1207;-46
2021/10/01 09:22:04;;;;;;;;;;;;;;;19.64;52.94;101914.00;4975493;28;950;-46
2021/10/01 09:24:29;;;;;;;;;;;;;;;19.54;53.22;101911.19;4976913;28;1223;-47
2021/10/01 09:26:55;;;;;;;;;;;;;;;19.48;54.13;101902.88;4976971;28;1132;-47
2021/10/01 09:29:28;;;;;;;;;;;;;;;19.80;54.08;101921.31;4976999;28;1136;-45
2021/10/01 09:31:54;;;;;;;;;;;;;;;20.12;53.79;101914.84;4964030;28;1974;-46
2021/10/01 09:34:22;;;;;;;;;;;;;;;20.50;52.82;101920.22;4976687;28;1165;-46
2021/10/01 09:36:56;;;;;;;;;;;;;;;20.45;52.76;101921.00;4977063;28;1132;-46
2021/10/01 09:39:30;;;;;;;;;;;;;;;20.80;51.81;101919.50;4977148;28;1230;-46
2021/10/01 09:41:57;;;;;;;;;;;;;;;20.50;52.69;101922.97;4976906;28;1140;-47
2021/10/01 09:44:23;;;;;;;;;;;;;;;20.83;51.79;101913.41;4976768;28;1168;-51
2021/10/01 09:46:49;;;;;;;;;;;;;;;20.87;51.64;101919.19;4965854;28;1157;-47
2021/10/01 09:49:15;;;;;;;;;;;;;;;20.77;51.79;101931.06;4976876;28;1165;-46
2021/10/01 09:51:54;;;;;;;;;;;;;;;20.93;51.40;101925.56;4976900;28;1910;-46
2021/10/01 09:54:21;;;;;;;;;;;;;;;20.77;51.85;101925.53;4976727;28;1132;-47
2021/10/01 09:56:46;;;;;;;;;;;;;;;20.97;51.19;101923.91;4976412;28;1109;-45
2021/10/01 09:59:15;;;;;;;;;;;;;;;21.09;50.89;101921.69;4976569;28;1136;-46
2021/10/01 10:02:00;;;;;;;;;;;;;;;20.71;51.94;101925.81;4976783;28;1105;-46
2021/10/01 10:04:28;;;;;;;;;;;;;;;20.83;51.65;101927.22;4972976;28;1105;-46
2021/10/01 10:06:54;;;;;;;;;;;;;;;20.73;51.83;101931.91;4960512;28;1509;-46
2021/10/01 10:09:29;;;;;;;;;;;;;;;21.14;50.67;101930.00;4975896;28;1227;-46
2021/10/01 10:11:55;;;;;;;;;;;;;;;21.20;50.45;101925.28;4980386;28;1915;-46
2021/10/01 10:14:20;;;;;;;;;;;;;;;21.04;51.02;101918.91;4980649;28;1180;-46
2021/10/01 10:16:46;;;;;;;;;;;;;;;;;;4980666;28;1136;-46
2021/10/01 10:19:31;;;;;;;;;;;;;;;21.09;50.65;101918.94;4980418;28;1161;-46
2021/10/01 10:21:57;;;;;;;;;;;;;;;21.01;51.03;101913.94;4968937;28;1117;-46
2021/10/01 10:24:23;;;;;;;;;;;;;;;21.04;50.93;101907.84;4980015;28;1145;-46
2021/10/01 10:26:48;;;;;;;;;;;;;;;20.90;51.24;101906.75;4980082;28;920;-46
2021/10/01 10:29:14;;;;;;;;;;;;;;;20.95;51.21;101910.34;4980535;28;1077;-46
2021/10/01 10:31:40;;;;;;;;;;;;;;;21.04;50.73;101905.09;4978954;28;2043;-46
2021/10/01 10:34:24;;;;;;;;;;;;;;;21.01;50.90;101905.66;4979674;28;1185;-45
2021/10/01 10:36:50;;;;;;;;;;;;;;;20.87;51.44;101912.84;4979899;28;1140;-46
2021/10/01 10:39:16;;;;;;;;;;;;;;;20.86;51.40;101898.22;4979363;28;1718;-46
2021/10/01 10:41:42;;;;;;;;;;;;;;;20.96;50.97;101903.72;4979930;28;1105;-46
2021/10/01 10:44:08;;;;;;;;;;;;;;;21.02;51.00;101899.84;4979601;28;1140;-45
2021/10/01 10:46:36;;;;;;;;;;;;;;;20.97;51.10;101901.78;4979506;28;1384;-46
2021/10/01 10:49:17;;;;;;;;;;;;;;;21.06;50.82;101891.84;4980104;28;1081;-46
2021/10/01 10:51:51;;;;;;;;;;;;;;;20.81;51.42;101896.25;4973638;28;1898;-45
2021/10/01 10:54:18;;;;;;;;;;;;;;;21.03;50.90;101892.41;4977842;28;1419;-46
2021/10/01 10:56:43;;;;;;;;;;;;;;;20.83;51.34;101891.28;4978651;28;1424;-45
2021/10/01 10:59:10;;;;;;;;;;;;;;;20.85;51.17;101893.78;4979203;28;1199;-45
2021/10/01 11:01:37;;;;;;;;;;;;;;;20.34;52.22;101892.56;4970025;28;1488;-47
2021/10/01 11:04:31;;;;;;;;;;;;;;;20.17;52.57;101901.06;4974376;28;1137;-48
2021/10/01 11:06:57;;;;;;;;;;;;;;;20.10;52.89;101897.69;4978641;28;1360;-48
2021/10/01 11:09:23;;;;;;;;;;;;;;;20.13;52.66;101899.94;4977918;28;1096;-47
2021/10/01 11:11:48;;;;;;;;;;;;;;;19.59;54.25;101900.22;4979397;28;1902;-50
2021/10/01 11:14:14;;;;;;;;;;;;;;;19.48;54.50;101900.13;4979301;28;1175;-49
2021/10/01 11:16:40;;;;;;;;;;;;;;;19.39;54.91;101896.22;4979108;28;987;-54
2021/10/01 11:19:07;;;;;;;;;;;;;;;19.49;54.32;101893.50;4977835;28;1112;-49
2021/10/01 11:21:36;;;;;;;;;;;;;;;19.43;54.18;101897.34;4978674;28;1175;-48
2021/10/01 11:24:12;;;;;;;;;;;;;;;19.28;54.74;101894.50;4979132;28;1128;-55
2021/10/01 11:26:51;;;;;;;;;;;;;;;19.18;55.01;101891.63;4979210;28;1203;-48
2021/10/01 11:29:25;;;;;;;;;;;;;;;19.18;54.94;101888.88;4978831;28;1112;-50
2021/10/01 11:31:51;;;;;;;;;;;;;;;19.18;54.52;101889.72;4979006;28;1903;-49
2021/10/01 11:34:17;;;;;;;;;;;;;;;18.94;54.97;101900.25;4978792;28;1303;-48
2021/10/01 11:36:42;;;;;;;;;;;;;;;19.15;54.32;101888.31;4974997;28;1180;-48
2021/10/01 11:39:14;;;;;;;;;;;;;;;19.30;54.81;101893.09;4968957;28;1140;-50
2021/10/01 11:41:40;;;;;;;;;;;;;;;19.79;54.61;101893.97;4976681;28;1405;-49
2021/10/01 11:44:08;;;;;;;;;;;;;;;20.15;54.34;101892.22;4978527;28;1136;-49
2021/10/01 11:46:35;;;;;;;;;;;;;;;20.17;54.54;101901.06;4978595;28;1089;-49
2021/10/01 11:49:06;;;;;;;;;;;;;;;20.45;53.67;101906.38;4975207;28;1116;-48
2021/10/01 11:51:31;;;;;;;;;;;;;;;20.45;53.59;101890.63;4972765;28;1910;-48
2021/10/01 11:54:06;;;;;;;;;;;;;;;20.77;52.45;101897.09;4973125;28;1204;-49
2021/10/01 11:56:32;;;;;;;;;;;;;;;20.58;52.90;101899.50;4977835;28;1492;-51
2021/10/01 11:58:57;;;;;;;;;;;;;;;20.27;53.42;101899.41;4977861;28;1140;-51
2021/10/01 12:01:22;;;;;;;;;;;;;;;19.78;54.69;101893.13;4969679;28;1133;-52
2021/10/01 12:03:48;;;;;;;;;;;;;;;19.74;54.46;101888.41;4978100;28;1121;-53
2021/10/01 12:06:17;;;;;;;;;;;;;;;19.62;54.44;101899.66;4973053;28;1223;-50
2021/10/01 12:08:43;;;;;;;;;;;;;;;19.45;54.58;101894.31;4977302;28;931;-50
2021/10/01 12:11:08;;;;;;;;;;;;;;;19.56;53.66;101887.78;4975536;28;1989;-51
2021/10/01 12:13:35;;;;;;;;;;;;;;;19.65;53.27;101886.16;4971435;28;1208;-49
2021/10/01 12:16:02;;;;;;;;;;;;;;;19.40;54.02;101881.31;4971930;28;1251;-48
2021/10/01 12:18:30;;;;;;;;;;;;;;;19.26;54.19;101878.19;4974203;28;1403;-47
2021/10/01 12:20:56;;;;;;;;;;;;;;;19.45;54.38;101881.34;4977592;28;828;-46
2021/10/01 12:23:22;;;;;;;;;;;;;;;19.69;54.49;101877.34;4968032;28;1105;-47
2021/10/01 12:25:54;;;;;;;;;;;;;;;19.90;54.62;101873.63;4977322;28;861;-50
2021/10/01 12:28:20;;;;;;;;;;;;;;;20.13;54.08;101871.47;4967133;28;1177;-52
2021/10/01 12:30:45;;;;;;;;;;;;;;;20.05;54.05;101872.84;4972719;28;1118;-49
2021/10/01 12:33:11;;;;;;;;;;;;;;;20.04;54.38;101870.38;4975450;28;1923;-50
2021/10/01 12:35:36;;;;;;;;;;;;;;;20.06;54.29;101871.72;4971979;28;1232;-47
2021/10/01 12:38:02;;;;;;;;;;;;;;;20.56;52.88;101863.84;4971011;28;1003;-50
2021/10/01 12:40:27;;;;;;;;;;;;;;;20.51;52.83;101861.91;4968753;28;1212;-50
2021/10/01 12:42:53;;;;;;;;;;;;;;;20.55;52.81;101864.94;4973969;28;1144;-49
2021/10/01 12:45:19;;;;;;;;;;;;;;;20.83;51.93;101873.84;4977303;28;1179;-48
2021/10/01 12:47:45;;;;;;;;;;;;;;;20.81;52.03;101863.06;4976159;28;1195;-51
2021/10/01 12:50:17;;;;;;;;;;;;;;;21.00;51.41;101868.06;4977289;28;1132;-48
2021/10/01 12:52:44;;;;;;;;;;;;;;;20.62;52.61;101867.44;4970894;28;1977;-49
2021/10/01 12:55:10;;;;;;;;;;;;;;;20.70;52.35;101866.94;4969814;28;1149;-47
2021/10/01 12:57:36;;;;;;;;;;;;;;;20.40;52.91;101868.53;4976900;28;1113;-47
2021/10/01 13:00:01;;;;;;;;;;;;;;;20.46;52.81;101874.91;4977669;28;1109;-49
2021/10/01 13:02:42;;;;;;;;;;;;;;;19.83;54.57;101871.09;4977649;28;1140;-48
2021/10/01 13:05:08;;;;;;;;;;;;;;;19.80;54.47;101874.41;4976816;28;1502;-47
2021/10/01 13:07:35;;;;;;;;;;;;;;;19.97;53.41;101873.38;4977070;28;1090;-46
2021/10/01 13:10:24;;;;;;;;;;;;;;;19.57;54.38;101870.13;4976087;28;1124;-49
2021/10/01 13:12:59;;;;;;;;;;;;;;;19.59;54.42;101872.63;4968219;28;1914;-48
2021/10/01 13:15:25;;;;;;;;;;;;;;;19.53;54.10;101873.66;4967753;28;1443;-50
2021/10/01 13:18:02;;;;;;;;;;;;;;;19.37;54.57;101879.09;4976863;28;1160;-48
2021/10/01 13:20:28;;;;;;;;;;;;;;;19.54;53.72;101881.66;4977090;28;1120;-47
2021/10/01 13:23:07;;;;;;;;;;;;;;;19.26;54.57;101874.59;4963027;28;1165;-48
2021/10/01 13:25:34;;;;;;;;;;;;;;;19.41;55.45;101868.38;4967038;28;1157;-47
2021/10/01 13:28:00;;;;;;;;;;;;;;;20.17;53.91;101873.44;4977063;28;1140;-48
2021/10/01 13:30:25;;;;;;;;;;;;;;;20.64;52.74;101873.56;4977503;28;1128;-47
2021/10/01 13:32:50;;;;;;;;;;;;;;;20.66;52.55;101868.56;4976773;28;1902;-47
2021/10/01 13:35:16;;;;;;;;;;;;;;;21.09;51.35;101869.16;4976658;28;1104;-49
2021/10/01 13:37:44;;;;;;;;;;;;;;;21.02;51.38;101871.38;4975227;28;889;-48
2021/10/01 13:40:10;;;;;;;;;;;;;;;20.66;52.46;101857.50;4977175;28;1191;-49
2021/10/01 13:42:35;;;;;;;;;;;;;;;20.27;53.46;101866.28;4976679;28;1108;-48
2021/10/01 13:45:01;;;;;;;;;;;;;;;20.26;53.48;101870.13;4975456;28;1289;-48
2021/10/01 13:47:26;;;;;;;;;;;;;;;19.92;54.06;101859.53;4976598;28;1265;-50
2021/10/01 13:49:52;;;;;;;;;;;;;;;19.89;53.61;101860.09;4976614;28;927;-48
2021/10/01 13:52:17;;;;;;;;;;;;;;;19.55;54.52;101858.50;4976274;28;1910;-46
2021/10/01 13:54:42;;;;;;;;;;;;;;;19.36;54.73;101854.53;4976784;28;1125;-48
2021/10/01 13:57:08;;;;;;;;;;;;;;;19.48;54.07;101863.44;4976965;28;1183;-50
2021/10/01 13:59:33;;;;;;;;;;;;;;;19.18;54.88;101861.31;4976663;28;1176;-48
2021/10/01 14:01:59;;;;;;;;;;;;;;;19.22;54.23;101856.91;4976804;28;1120;-48
2021/10/01 14:04:26;;;;;;;;;;;;;;;19.10;54.37;101855.19;4976359;28;1117;-48
2021/10/01 14:06:51;;;;;;;;;;;;;;;19.09;54.89;101856.28;4970539;28;1176;-51
2021/10/01 14:09:16;;;;;;;;;;;;;;;19.48;54.61;101852.41;4972401;28;1180;-50
2021/10/01 14:11:42;;;;;;;;;;;;;;;19.66;55.19;101851.13;4976958;28;1979;-49
2021/10/01 14:14:07;;;;;;;;;;;;;;;19.82;55.20;101847.38;4976341;28;1160;-47
2021/10/01 14:16:33;;;;;;;;;;;;;;;20.12;54.24;101843.06;4976404;28;1167;-52
2021/10/01 14:18:58;;;;;;;;;;;;;;;20.27;53.78;101850.56;4976653;28;1148;-47